Time;durP1;ratioP1;P1;durP2;ratioP2;P2;SDS_P1;SDS_P2;PMS_P1;PMS_P2;Temp;Humidity;BMP_temperature;BMP_pressure;BME280_temperature;BME280_humidity;BME280_pressure;Samples;Min_cycle;Max_cycle;Signal;HPM_P1;HPM_P2
2022/08/03 00:00:05;;;;;;;1.30;0.70;;;;;;;27.53;41.74;101353.22;5114666;28;20077;-46
2022/08/03 00:02:34;;;;;;;1.63;1.00;;;;;;;27.57;41.87;101359.38;5097407;28;20016;-45
2022/08/03 00:05:02;;;;;;;3.40;0.63;;;;;;;27.40;42.35;101343.44;5114845;28;20032;-49
2022/08/03 00:07:31;;;;;;;3.17;0.77;;;;;;;27.54;41.76;101348.81;5096959;28;20023;-45
2022/08/03 00:09:59;;;;;;;3.25;1.10;;;;;;;27.44;41.98;101347.84;5114300;28;20051;-56
2022/08/03 00:12:28;;;;;;;2.72;0.90;;;;;;;27.48;41.92;101346.13;5114861;28;20114;-50
2022/08/03 00:14:56;;;;;;;4.65;1.10;;;;;;;27.58;41.78;101337.41;5114596;28;20042;-45
2022/08/03 00:17:25;;;;;;;3.05;0.70;;;;;;;27.52;41.65;101334.75;5114956;28;20157;-45
2022/08/03 00:19:54;;;;;;;3.20;0.82;;;;;;;27.41;41.89;101332.94;5096035;28;20027;-52
2022/08/03 00:22:22;;;;;;;2.97;0.90;;;;;;;27.44;41.79;101329.41;5096909;28;20592;-46
2022/08/03 00:24:51;;;;;;;3.50;0.65;;;;;;;27.30;42.03;101338.13;5114097;28;20063;-47
2022/08/03 00:27:19;;;;;;;1.38;0.60;;;;;;;27.35;41.73;101335.53;5114450;28;20042;-45
2022/08/03 00:29:48;;;;;;;2.30;0.60;;;;;;;27.31;41.82;101339.00;5114613;28;20094;-45
2022/08/03 00:32:17;;;;;;;1.17;0.50;;;;;;;27.31;41.72;101336.38;5114505;28;20160;-45
2022/08/03 00:34:46;;;;;;;1.73;0.77;;;;;;;27.43;41.56;101344.34;5114290;28;20107;-49
2022/08/03 00:37:14;;;;;;;2.00;0.90;;;;;;;27.53;41.23;101325.97;5095910;28;20023;-51
2022/08/03 00:39:45;;;;;;;3.47;0.70;;;;;;;27.67;40.92;101331.28;5114274;28;20027;-45
2022/08/03 00:42:13;;;;;;;2.53;0.82;;;;;;;27.57;41.10;101336.50;5096000;28;20034;-45
2022/08/03 00:44:43;;;;;;;1.58;0.80;;;;;;;27.50;41.36;101340.03;5096392;28;20027;-47
2022/08/03 00:47:12;;;;;;;4.32;0.80;;;;;;;27.46;41.11;101327.69;5096537;28;20106;-46
2022/08/03 00:49:41;;;;;;;3.22;0.60;;;;;;;27.52;41.03;101333.00;5113518;28;20433;-45
2022/08/03 00:52:11;;;;;;;2.65;0.80;;;;;;;27.44;41.18;101334.69;5114277;28;20019;-45
2022/08/03 00:54:40;;;;;;;1.33;0.50;;;;;;;27.32;41.43;101332.88;5114073;28;20164;-45
2022/08/03 00:57:09;;;;;;;3.78;0.80;;;;;;;27.41;41.09;101335.56;5095648;28;20027;-48
2022/08/03 00:59:38;;;;;;;4.07;0.80;;;;;;;27.33;41.38;101318.81;5114081;28;20028;-46
2022/08/03 01:02:06;;;;;;;4.40;0.70;;;;;;;27.30;41.42;101326.75;5113762;28;20023;-45
2022/08/03 01:04:35;;;;;;;1.30;0.70;;;;;;;27.12;41.48;101312.59;5095788;28;20016;-58
2022/08/03 01:07:27;;;;;;;2.90;1.00;;;;;;;27.19;41.41;101318.78;5095397;28;20027;-46
2022/08/03 01:10:14;;;;;;;3.55;0.55;;;;;;;27.23;41.50;101306.50;5094754;28;20109;-45
2022/08/03 01:12:58;;;;;;;2.67;1.10;;;;;;;27.23;41.14;101310.00;5107353;28;20039;-46
2022/08/03 01:15:37;;;;;;;3.78;0.80;;;;;;;27.47;40.62;101305.75;5095613;28;20521;-46
2022/08/03 01:18:08;;;;;;;1.88;0.90;;;;;;;27.46;40.40;101304.00;5095998;28;20027;-57
2022/08/03 01:20:40;;;;;;;3.15;0.60;;;;;;;27.31;40.74;101299.50;5095393;28;20023;-56
2022/08/03 01:23:34;;;;;;;2.38;0.65;;;;;;;27.15;40.85;101296.78;5078333;28;20024;-51
2022/08/03 01:26:21;;;;;;;3.20;0.73;;;;;;;26.99;41.39;101302.84;5089546;28;20044;-45
2022/08/03 01:29:18;;;;;;;1.98;0.80;;;;;;;26.96;41.34;101306.34;5085508;28;20130;-48
2022/08/03 01:31:53;;;;;;;3.22;0.57;;;;;;;27.18;40.80;101311.75;5106544;28;20033;-46
2022/08/03 01:34:22;;;;;;;2.88;0.80;;;;;;;27.21;40.57;101292.44;5113744;28;20386;-45
2022/08/03 01:36:54;;;;;;;1.92;0.73;;;;;;;27.19;40.55;101292.44;5095068;28;20034;-45
2022/08/03 01:39:22;;;;;;;5.95;0.80;;;;;;;27.12;40.71;101291.53;5095256;28;20022;-48
2022/08/03 01:41:59;;;;;;;4.53;0.70;;;;;;;26.95;40.93;101295.84;5095368;28;20035;-47
2022/08/03 01:44:41;;;;;;;2.25;0.70;;;;;;;26.87;41.29;101289.63;5096045;28;20023;-48
2022/08/03 01:47:11;;;;;;;1.73;0.38;;;;;;;26.80;40.99;101284.34;5095627;28;20019;-46
2022/08/03 01:49:43;;;;;;;3.70;0.77;;;;;;;27.08;40.67;101295.03;5095534;28;20043;-45
2022/08/03 01:52:12;;;;;;;2.25;0.77;;;;;;;27.05;40.64;101288.88;5113432;28;20084;-45
2022/08/03 01:54:44;;;;;;;2.33;0.70;;;;;;;27.08;40.37;101288.84;5095434;28;20027;-45
2022/08/03 01:57:14;;;;;;;1.15;0.55;;;;;;;27.00;40.67;101286.19;5113630;28;20485;-45
2022/08/03 01:59:44;;;;;;;1.77;0.57;;;;;;;26.89;40.70;101288.75;5095084;28;20106;-45
2022/08/03 02:02:15;;;;;;;1.67;0.70;;;;;;;26.90;40.56;101289.66;5112952;28;20380;-48
2022/08/03 02:04:44;;;;;;;1.13;0.60;;;;;;;26.79;40.58;101277.31;5095477;28;20016;-52
2022/08/03 02:07:14;;;;;;;3.67;0.65;;;;;;;26.88;40.64;101281.75;5095183;28;20427;-48
2022/08/03 02:09:45;;;;;;;2.60;0.82;;;;;;;26.94;40.37;101283.53;5094893;28;20027;-47
2022/08/03 02:12:15;;;;;;;3.60;1.02;;;;;;;26.89;40.71;101288.75;5113684;28;20102;-46
2022/08/03 02:14:45;;;;;;;2.08;0.70;;;;;;;26.78;40.70;101288.69;5112974;28;20467;-57
2022/08/03 02:17:13;;;;;;;3.20;1.08;;;;;;;26.79;40.69;101285.22;5094477;28;20055;-49
2022/08/03 02:19:43;;;;;;;1.73;0.60;;;;;;;26.78;40.69;101287.78;5113010;28;20027;-45
2022/08/03 02:22:13;;;;;;;2.65;0.70;;;;;;;26.78;40.80;101285.16;5080128;28;20023;-53
2022/08/03 02:24:41;;;;;;;3.72;0.88;;;;;;;26.77;40.76;101271.13;5117039;28;20020;-48
2022/08/03 02:27:19;;;;;;;1.33;0.60;;;;;;;26.84;40.34;101266.81;5116269;28;20027;-49
2022/08/03 02:29:52;;;;;;;2.05;0.82;;;;;;;26.80;40.28;101268.56;5099362;28;20023;-52
2022/08/03 02:32:24;;;;;;;1.60;0.55;;;;;;;26.83;40.32;101278.22;5099237;28;20378;-48
2022/08/03 02:34:54;;;;;;;3.58;0.60;;;;;;;26.75;40.39;101280.75;5099099;28;20028;-46
2022/08/03 02:37:26;;;;;;;2.92;1.15;;;;;;;26.71;40.34;101286.88;5098788;28;20026;-57
2022/08/03 02:39:58;;;;;;;3.00;0.77;;;;;;;26.79;40.34;101286.91;5098655;28;20020;-49
2022/08/03 02:42:28;;;;;;;1.60;0.60;;;;;;;26.68;40.53;101273.69;5116692;28;20414;-45
2022/08/03 02:44:57;;;;;;;4.00;0.85;;;;;;;26.65;40.38;101281.56;5098529;28;20459;-48
2022/08/03 02:47:28;;;;;;;3.03;0.90;;;;;;;26.57;40.44;101280.63;5098537;28;20029;-58
2022/08/03 02:49:58;;;;;;;2.78;0.80;;;;;;;26.52;40.77;101281.47;5098466;28;20019;-47
2022/08/03 02:52:29;;;;;;;2.80;0.70;;;;;;;26.45;40.61;101271.81;5116027;28;20028;-48
2022/08/03 02:55:01;;;;;;;2.05;0.57;;;;;;;26.46;40.90;101277.91;5098737;28;20032;-48
2022/08/03 02:57:30;;;;;;;3.33;1.02;;;;;;;26.44;40.72;101280.56;5116616;28;20016;-51
2022/08/03 03:00:01;;;;;;;2.85;0.73;;;;;;;26.41;41.00;101275.25;5098011;28;20016;-46
2022/08/03 03:02:30;;;;;;;2.03;0.60;;;;;;;26.36;40.80;101280.50;5116297;28;20024;-46
2022/08/03 03:04:59;;;;;;;2.40;0.85;;;;;;;26.33;40.71;101290.09;5116105;28;20110;-49
2022/08/03 03:07:28;;;;;;;5.32;0.70;;;;;;;26.27;40.83;101284.81;5115912;28;20037;-53
2022/08/03 03:09:56;;;;;;;6.03;0.88;;;;;;;26.22;41.37;101290.88;5097938;28;20016;-46
2022/08/03 03:12:25;;;;;;;1.83;0.60;;;;;;;26.18;41.00;101291.72;5098586;28;20107;-57
2022/08/03 03:14:54;;;;;;;3.50;1.00;;;;;;;26.34;40.51;101278.69;5116261;28;20421;-47
2022/08/03 03:17:23;;;;;;;2.50;0.70;;;;;;;26.45;40.44;101279.69;5115817;28;20028;-51
2022/08/03 03:19:52;;;;;;;1.98;0.80;;;;;;;26.41;40.68;101279.63;5115333;28;20040;-48
2022/08/03 03:22:21;;;;;;;2.35;0.90;;;;;;;26.45;40.45;101274.44;5115801;28;20028;-46
2022/08/03 03:24:50;;;;;;;2.72;0.82;;;;;;;26.44;40.45;101283.19;5097707;28;20526;-49
2022/08/03 03:27:19;;;;;;;3.45;0.88;;;;;;;26.22;40.75;101290.88;5080921;28;20036;-49
2022/08/03 03:29:48;;;;;;;5.57;1.00;;;;;;;26.32;40.54;101281.34;5115233;28;20427;-50
2022/08/03 03:32:16;;;;;;;2.33;0.95;;;;;;;26.17;40.67;101279.44;5115644;28;20131;-57
2022/08/03 03:34:45;;;;;;;2.05;0.95;;;;;;;26.23;40.80;101281.25;5096926;28;20474;-52
2022/08/03 03:37:14;;;;;;;2.47;0.60;;;;;;;26.15;40.74;101288.19;5097356;28;20032;-51
2022/08/03 03:39:43;;;;;;;1.65;0.65;;;;;;;25.98;40.95;101278.38;5115141;28;20020;-46
2022/08/03 03:42:11;;;;;;;2.45;0.60;;;;;;;26.08;41.01;101276.72;5115869;28;20098;-45
2022/08/03 03:44:40;;;;;;;2.30;0.80;;;;;;;25.98;41.32;101283.63;5115316;28;20026;-49
2022/08/03 03:47:08;;;;;;;5.05;1.02;;;;;;;25.90;41.23;101285.28;5115330;28;20065;-46
2022/08/03 03:49:37;;;;;;;2.75;0.68;;;;;;;25.79;41.81;101282.56;5114734;28;20028;-49
2022/08/03 03:52:06;;;;;;;2.80;0.70;;;;;;;25.86;41.34;101281.75;5114655;28;20027;-56
2022/08/03 03:54:44;;;;;;;1.75;0.82;;;;;;;25.86;41.47;101292.28;5097459;28;20054;-53
2022/08/03 03:57:13;;;;;;;3.95;0.80;;;;;;;26.07;40.90;101288.09;5115169;28;20045;-50
2022/08/03 03:59:43;;;;;;;1.63;0.65;;;;;;;26.08;40.63;101292.50;5096927;28;20433;-52
2022/08/03 04:02:12;;;;;;;5.05;1.13;;;;;;;25.97;41.10;101288.88;5115137;28;20093;-47
2022/08/03 04:11:00;;;;;;;5.40;0.80;;;;;;;26.01;40.73;101282.78;5092360;28;20040;-56
2022/08/03 04:13:11;;;;;;;1.50;0.55;;;;;;;26.01;40.88;101285.41;5093681;28;20040;-56
2022/08/03 04:15:40;;;;;;;2.17;0.82;;;;;;;25.98;41.16;101288.88;5096556;28;20031;-50
2022/08/03 04:18:12;;;;;;;3.97;0.95;;;;;;;25.80;41.10;101281.72;5096778;28;20034;-52
2022/08/03 04:20:42;;;;;;;2.80;0.77;;;;;;;25.80;41.15;101284.34;5096320;28;20036;-49
2022/08/03 04:23:12;;;;;;;3.10;0.80;;;;;;;25.85;40.94;101272.09;5114537;28;20421;-47
2022/08/03 04:25:41;;;;;;;3.50;0.85;;;;;;;25.79;41.36;101286.06;5096226;28;20474;-53
2022/08/03 04:28:11;;;;;;;5.05;0.80;;;;;;;25.84;40.99;101278.22;5114353;28;20023;-46
2022/08/03 04:30:46;;;;;;;3.25;0.90;;;;;;;25.77;41.24;101286.94;5114272;28;20106;-56
2022/08/03 04:33:15;;;;;;;4.22;0.80;;;;;;;25.81;40.94;101286.09;5114237;28;20419;-56
2022/08/03 04:35:45;;;;;;;2.65;0.63;;;;;;;25.94;40.63;101293.25;5114350;28;20497;-46
2022/08/03 04:38:14;;;;;;;3.30;0.80;;;;;;;25.91;40.57;101279.16;5096236;28;20035;-45
2022/08/03 04:40:44;;;;;;;4.13;0.90;;;;;;;25.69;41.22;101283.31;5096086;28;20100;-57
2022/08/03 04:43:14;;;;;;;0.88;0.50;;;;;;;25.87;40.64;101296.66;5096422;28;20031;-52
2022/08/03 04:45:43;;;;;;;2.40;0.55;;;;;;;25.78;40.98;101293.97;5113491;28;20028;-47
2022/08/03 04:48:11;;;;;;;6.20;0.80;;;;;;;25.72;40.92;101291.25;5113902;28;20106;-48
2022/08/03 04:50:41;;;;;;;1.30;0.60;;;;;;;25.85;40.72;101289.63;5096113;28;20493;-46
2022/08/03 04:53:10;;;;;;;3.10;1.00;;;;;;;25.75;40.67;101292.16;5114006;28;20051;-50
2022/08/03 04:55:38;;;;;;;1.67;0.80;;;;;;;25.75;40.91;101294.78;5095743;28;20106;-46
2022/08/03 04:58:07;;;;;;;4.28;0.93;;;;;;;25.70;41.14;101295.59;5113958;28;20088;-46
2022/08/03 05:00:36;;;;;;;2.30;0.55;;;;;;;25.64;41.43;101291.16;5113509;28;20382;-56
2022/08/03 05:03:04;;;;;;;1.90;0.90;;;;;;;25.70;41.04;101287.72;5114225;28;20462;-46
2022/08/03 05:05:33;;;;;;;2.63;0.95;;;;;;;25.61;41.44;101278.88;5113830;28;20020;-46
2022/08/03 05:08:02;;;;;;;4.13;1.13;;;;;;;25.60;41.39;101287.63;5114389;28;20035;-49
2022/08/03 05:10:30;;;;;;;2.58;0.93;;;;;;;25.67;41.08;101279.78;5114129;28;20485;-47
2022/08/03 05:12:59;;;;;;;6.57;0.77;;;;;;;25.71;41.36;101279.88;5113699;28;20080;-52
2022/08/03 05:15:27;;;;;;;3.85;1.00;;;;;;;25.46;41.60;101279.59;5095845;28;20470;-48
2022/08/03 05:18:00;;;;;;;3.33;0.77;;;;;;;25.65;41.33;101281.56;5095845;28;20043;-47
2022/08/03 05:20:28;;;;;;;4.57;1.20;;;;;;;25.68;41.02;101289.44;5113740;28;20024;-50
2022/08/03 05:23:00;;;;;;;2.47;0.52;;;;;;;25.60;41.16;101278.84;5078852;28;20045;-49
2022/08/03 05:25:28;;;;;;;1.63;0.70;;;;;;;25.55;41.21;101286.69;5113114;28;20387;-47
2022/08/03 05:27:57;;;;;;;3.28;0.93;;;;;;;25.75;40.96;101291.28;5113447;28;20027;-53
2022/08/03 05:30:25;;;;;;;3.78;0.98;;;;;;;25.81;40.69;101296.63;5078704;28;20110;-47
2022/08/03 05:32:54;;;;;;;3.05;0.50;;;;;;;25.71;41.29;101292.13;5113396;28;20020;-51
2022/08/03 05:35:24;;;;;;;4.07;1.35;;;;;;;25.72;40.95;101286.91;5095559;28;20068;-49
2022/08/03 05:37:52;;;;;;;2.50;0.55;;;;;;;25.59;40.77;101266.56;5079759;28;20026;-51
2022/08/03 05:40:21;;;;;;;7.22;1.83;;;;;;;25.70;40.89;101285.09;5113538;28;20043;-45
2022/08/03 05:42:49;;;;;;;2.45;0.80;;;;;;;25.89;40.68;101288.81;5113604;28;20609;-46
2022/08/03 05:45:18;;;;;;;2.25;0.73;;;;;;;25.79;41.10;101283.44;5113397;28;20459;-46
2022/08/03 05:47:47;;;;;;;1.85;0.80;;;;;;;25.86;41.04;101288.78;5113159;28;20051;-48
2022/08/03 05:50:15;;;;;;;6.05;0.88;;;;;;;26.09;40.67;101289.00;5113766;28;20386;-47
2022/08/03 05:52:44;;;;;;;4.30;0.88;;;;;;;26.14;40.35;101283.81;5112824;28;20090;-46
2022/08/03 05:55:13;;;;;;;4.90;0.90;;;;;;;26.18;40.80;101290.84;5113394;28;20101;-47
2022/08/03 05:57:42;;;;;;;5.10;1.20;;;;;;;26.14;40.73;101286.44;5116460;28;20023;-45
2022/08/03 06:00:12;;;;;;;2.95;0.70;;;;;;;26.24;40.34;101294.41;5117355;28;20031;-46
2022/08/03 06:02:40;;;;;;;4.50;0.93;;;;;;;26.29;40.56;101289.19;5117143;28;20031;-50
2022/08/03 06:05:09;;;;;;;6.15;1.40;;;;;;;26.44;40.25;101284.91;5117306;28;20489;-51
2022/08/03 06:07:38;;;;;;;3.55;0.90;;;;;;;26.48;40.28;101292.84;5117453;28;20405;-47
2022/08/03 06:10:07;;;;;;;4.18;0.85;;;;;;;26.58;40.21;101290.28;5099001;28;20502;-50
2022/08/03 06:12:36;;;;;;;7.55;1.15;;;;;;;26.58;40.09;101278.00;5117533;28;20099;-45
2022/08/03 06:15:05;;;;;;;6.18;1.13;;;;;;;26.60;40.50;101289.44;5099580;28;20173;-47
2022/08/03 06:17:34;;;;;;;4.05;0.90;;;;;;;26.68;40.12;101295.63;5116872;28;20119;-45
2022/08/03 06:20:02;;;;;;;5.50;1.10;;;;;;;26.74;40.20;101288.63;5116782;28;20015;-46
2022/08/03 06:22:30;;;;;;;5.72;1.27;;;;;;;26.71;40.61;101291.25;5116790;28;20028;-58
2022/08/03 06:24:59;;;;;;;2.60;0.68;;;;;;;26.73;40.45;101295.66;5116609;28;20048;-44
2022/08/03 06:27:26;;;;;;;2.60;1.02;;;;;;;26.82;40.25;101298.38;5117087;28;20535;-57
2022/08/03 06:29:55;;;;;;;5.97;1.02;;;;;;;26.86;40.36;101301.91;5116877;28;20046;-46
2022/08/03 06:32:23;;;;;;;2.53;0.93;;;;;;;26.92;40.52;101306.34;5082278;28;20028;-45
2022/08/03 06:34:52;;;;;;;4.35;1.15;;;;;;;26.92;40.62;101286.16;5116646;28;20089;-47
2022/08/03 06:37:22;;;;;;;2.60;0.88;;;;;;;27.02;40.55;101289.72;5098592;28;20023;-47
2022/08/03 06:39:50;;;;;;;3.67;1.00;;;;;;;27.05;40.44;101283.59;5098478;28;20035;-48
2022/08/03 06:42:19;;;;;;;1.88;0.68;;;;;;;27.08;40.42;101273.97;5116849;28;20076;-49
2022/08/03 06:44:47;;;;;;;4.93;1.13;;;;;;;27.21;40.25;101292.44;5116275;28;20041;-48
2022/08/03 06:47:16;;;;;;;4.07;1.50;;;;;;;27.24;40.52;101300.34;5116582;28;20024;-46
2022/08/03 06:49:45;;;;;;;6.30;1.00;;;;;;;27.26;40.55;101290.72;5116474;28;20062;-46
2022/08/03 06:52:13;;;;;;;6.53;1.10;;;;;;;27.30;40.76;101297.75;5116192;28;20139;-49
2022/08/03 06:54:42;;;;;;;3.25;1.33;;;;;;;27.40;40.77;101294.28;5116676;28;20156;-51
2022/08/03 06:57:11;;;;;;;5.05;0.82;;;;;;;27.44;40.56;101300.44;5116500;28;20047;-53
2022/08/03 06:59:40;;;;;;;8.75;1.65;;;;;;;27.40;40.91;101291.63;5116355;28;20019;-47
2022/08/03 07:02:09;;;;;;;2.75;1.17;;;;;;;27.47;40.74;101305.75;5115732;28;20038;-52
2022/08/03 07:04:37;;;;;;;7.70;1.25;;;;;;;27.60;40.69;101311.94;5115802;28;20035;-47
2022/08/03 07:07:06;;;;;;;2.85;0.95;;;;;;;27.61;40.53;101316.34;5097281;28;20499;-49
2022/08/03 07:09:35;;;;;;;3.53;1.02;;;;;;;27.65;40.61;101302.28;5115090;28;20034;-46
2022/08/03 07:12:05;;;;;;;4.47;1.08;;;;;;;27.69;40.39;101303.19;5116073;28;20031;-48
2022/08/03 07:14:34;;;;;;;5.45;1.23;;;;;;;27.74;40.42;101315.50;5115856;28;20028;-45
2022/08/03 07:17:02;;;;;;;7.18;1.20;;;;;;;27.79;40.47;101314.63;5115708;28;20438;-51
2022/08/03 07:19:30;;;;;;;3.53;1.25;;;;;;;27.79;40.36;101314.63;5115677;28;20459;-46
2022/08/03 07:21:59;;;;;;;4.45;1.10;;;;;;;27.81;40.66;101315.50;5098144;28;20061;-49
2022/08/03 07:24:28;;;;;;;3.30;1.02;;;;;;;27.73;40.43;101305.81;5098136;28;20525;-46
2022/08/03 07:26:58;;;;;;;3.13;1.55;;;;;;;27.80;40.61;101308.50;5115700;28;20059;-47
2022/08/03 07:29:27;;;;;;;5.57;0.95;;;;;;;27.87;40.49;101308.50;5116185;28;20042;-49
2022/08/03 07:31:55;;;;;;;7.40;1.05;;;;;;;27.94;40.57;101309.41;5097537;28;20028;-46
2022/08/03 07:34:24;;;;;;;4.55;1.20;;;;;;;27.95;40.45;101318.16;5115511;28;20020;-49
2022/08/03 07:36:52;;;;;;;4.55;1.00;;;;;;;27.96;40.24;101317.28;5097977;28;20020;-47
2022/08/03 07:39:22;;;;;;;5.43;1.50;;;;;;;28.00;40.34;101313.78;5097715;28;20035;-53
2022/08/03 07:41:50;;;;;;;7.90;1.08;;;;;;;28.01;40.45;101308.50;5115439;28;20039;-47
2022/08/03 07:44:19;;;;;;;3.20;0.93;;;;;;;28.07;40.86;101312.03;5115621;28;20049;-48
2022/08/03 07:46:49;;;;;;;4.18;1.00;;;;;;;28.08;40.73;101319.06;5115443;28;20463;-55
2022/08/03 07:49:18;;;;;;;6.55;1.25;;;;;;;28.10;40.65;101310.31;5115339;28;20451;-54
2022/08/03 07:52:46;;;;;;;7.80;1.15;;;;;;;28.07;40.84;101315.53;5115068;28;20053;-48
2022/08/03 07:54:34;;;;;;;3.08;0.75;;;;;;;28.13;40.86;101318.22;5116051;28;20060;-49
2022/08/03 07:57:03;;;;;;;3.13;1.02;;;;;;;28.13;40.89;101307.69;5115144;28;20474;-48
2022/08/03 07:59:31;;;;;;;3.58;1.00;;;;;;;28.16;40.67;101309.44;5115024;28;20035;-50
2022/08/03 08:02:00;;;;;;;3.25;1.10;;;;;;;28.21;40.46;101310.31;5115678;28;20027;-47
2022/08/03 08:04:29;;;;;;;4.95;1.13;;;;;;;28.25;40.70;101316.47;5115499;28;20024;-48
2022/08/03 08:06:58;;;;;;;3.05;0.75;;;;;;;28.24;40.90;101310.31;5114539;28;20379;-47
2022/08/03 08:09:26;;;;;;;4.53;1.17;;;;;;;28.32;40.77;101316.47;5114992;28;20035;-46
2022/08/03 08:11:55;;;;;;;8.45;1.67;;;;;;;28.33;40.90;101312.09;5096870;28;20024;-46
2022/08/03 08:14:24;;;;;;;1.45;0.70;;;;;;;28.32;40.67;101311.19;5115158;28;20027;-49
2022/08/03 08:16:53;;;;;;;3.42;0.52;;;;;;;28.39;40.75;101317.34;5114931;28;20153;-50
2022/08/03 08:19:22;;;;;;;3.38;0.93;;;;;;;28.42;40.78;101325.25;5114576;28;20030;-48
2022/08/03 08:21:51;;;;;;;4.28;0.70;;;;;;;28.43;40.94;101312.97;5097335;28;20049;-46
2022/08/03 08:24:19;;;;;;;7.00;1.10;;;;;;;28.44;40.65;101312.09;5114853;28;20023;-53
2022/08/03 08:26:48;;;;;;;5.78;1.15;;;;;;;28.45;40.74;101313.84;5114618;28;20094;-53
2022/08/03 08:29:16;;;;;;;6.13;1.20;;;;;;;28.48;40.46;101314.72;5114765;28;20220;-50
2022/08/03 08:31:45;;;;;;;3.47;0.75;;;;;;;28.48;40.40;101313.81;5115135;28;20102;-48
2022/08/03 08:34:14;;;;;;;6.57;1.20;;;;;;;28.56;40.78;101320.00;5114636;28;20034;-47
2022/08/03 08:36:44;;;;;;;2.45;0.55;;;;;;;28.56;40.75;101314.72;5096886;28;20036;-46
2022/08/03 08:39:12;;;;;;;5.80;1.20;;;;;;;28.58;40.79;101315.59;5114603;28;20558;-49
2022/08/03 08:41:41;;;;;;;5.28;1.10;;;;;;;28.61;40.87;101320.88;5114313;28;20031;-47
2022/08/03 08:44:09;;;;;;;5.85;1.13;;;;;;;28.58;41.05;101317.34;5114215;28;20114;-50
2022/08/03 08:46:38;;;;;;;4.80;0.95;;;;;;;28.69;40.59;101319.97;5114526;28;20371;-49
2022/08/03 08:49:10;;;;;;;4.03;1.23;;;;;;;28.73;40.51;101325.28;5095976;28;20052;-49
2022/08/03 08:51:41;;;;;;;2.55;0.77;;;;;;;28.71;40.53;101326.13;5114571;28;20023;-46
2022/08/03 08:54:11;;;;;;;1.48;0.50;;;;;;;28.70;40.68;101317.34;5096881;28;20055;-50
2022/08/03 08:56:40;;;;;;;2.88;0.75;;;;;;;28.76;40.74;101319.13;5114415;28;20016;-45
2022/08/03 08:59:08;;;;;;;2.33;0.88;;;;;;;28.80;40.65;101324.38;5114594;28;20019;-53
2022/08/03 09:01:37;;;;;;;2.30;0.93;;;;;;;28.80;40.77;101316.47;5096172;28;20028;-48
2022/08/03 09:04:10;;;;;;;2.42;0.52;;;;;;;28.83;40.48;101306.78;5096064;28;20047;-48
2022/08/03 09:06:38;;;;;;;3.03;0.63;;;;;;;28.87;40.38;101313.81;5114381;28;20028;-51
2022/08/03 09:09:07;;;;;;;1.38;0.45;;;;;;;28.92;40.56;101312.03;5095837;28;20023;-49
2022/08/03 09:11:35;;;;;;;2.63;0.68;;;;;;;28.93;40.41;101304.13;5096379;28;20497;-47
2022/08/03 09:14:05;;;;;;;6.18;0.90;;;;;;;28.97;40.56;101315.56;5113992;28;20038;-50
2022/08/03 09:16:34;;;;;;;7.72;0.93;;;;;;;28.99;40.07;101318.16;5114453;28;20024;-45
2022/08/03 09:19:14;;;;;;;4.00;0.70;;;;;;;28.95;40.14;101302.38;5113327;28;20023;-49
2022/08/03 09:21:42;;;;;;;5.20;0.90;;;;;;;29.03;40.33;101315.53;5114454;28;20030;-57
2022/08/03 09:24:11;;;;;;;3.22;0.50;;;;;;;29.03;40.17;101306.72;5113963;28;20055;-50
2022/08/03 09:26:39;;;;;;;3.08;0.88;;;;;;;28.98;40.34;101297.94;5113887;28;20040;-45
2022/08/03 09:29:10;;;;;;;2.90;0.60;;;;;;;29.02;40.57;101304.97;5113818;28;20023;-52
2022/08/03 09:31:40;;;;;;;1.88;0.70;;;;;;;29.00;40.11;101304.97;5112907;28;20024;-49
2022/08/03 09:34:11;;;;;;;6.75;0.57;;;;;;;29.07;40.07;101300.56;5095101;28;20019;-48
2022/08/03 09:36:46;;;;;;;3.15;0.80;;;;;;;28.96;40.50;101305.88;5095686;28;20096;-48
2022/08/03 09:39:16;;;;;;;3.72;0.98;;;;;;;28.89;40.56;101305.00;5114016;28;20116;-47
2022/08/03 09:41:46;;;;;;;1.25;0.82;;;;;;;28.93;40.83;101316.44;5095769;28;20475;-47
2022/08/03 09:44:14;;;;;;;2.15;0.70;;;;;;;28.95;40.52;101314.66;5114230;28;20028;-48
2022/08/03 09:46:55;;;;;;;3.08;0.77;;;;;;;28.98;40.69;101306.75;5113693;28;20088;-45
2022/08/03 09:49:23;;;;;;;2.38;0.60;;;;;;;29.04;40.67;101306.72;5115015;28;20097;-48
2022/08/03 09:51:52;;;;;;;1.67;0.57;;;;;;;29.08;40.44;101300.53;5095812;28;20031;-45
2022/08/03 09:54:31;;;;;;;6.07;0.98;;;;;;;29.14;40.54;101307.56;5113445;28;20032;-48
2022/08/03 09:57:00;;;;;;;3.42;0.60;;;;;;;29.18;40.38;101311.09;5113298;28;20383;-46
2022/08/03 09:59:29;;;;;;;2.45;0.63;;;;;;;29.22;40.51;101311.06;5112756;28;20023;-49
2022/08/03 10:01:59;;;;;;;2.40;0.80;;;;;;;29.33;40.73;101304.84;5113377;28;20023;-49
2022/08/03 10:04:27;;;;;;;1.58;0.40;;;;;;;29.25;40.81;101310.16;5113065;28;20018;-47
2022/08/03 10:07:08;;;;;;;4.50;0.77;;;;;;;29.39;40.50;101302.22;5095017;28;20024;-49
2022/08/03 10:09:37;;;;;;;4.88;0.95;;;;;;;29.45;40.39;101302.19;5094840;28;20030;-50
2022/08/03 10:12:11;;;;;;;5.15;0.85;;;;;;;29.29;40.95;101300.50;5113362;28;20019;-57
2022/08/03 10:14:44;;;;;;;3.97;0.65;;;;;;;29.11;41.59;101292.59;5113618;28;20550;-53
2022/08/03 10:17:13;;;;;;;3.67;0.90;;;;;;;29.08;41.74;101291.75;5113413;28;20027;-47
2022/08/03 10:19:41;;;;;;;4.18;0.70;;;;;;;29.00;42.18;101298.81;5113324;28;20429;-49
2022/08/03 10:22:31;;;;;;;2.47;0.90;;;;;;;28.99;42.06;101292.66;5113320;28;20080;-50
2022/08/03 10:25:12;;;;;;;3.85;0.60;;;;;;;29.18;41.73;101301.38;5105213;28;20036;-47
2022/08/03 10:27:42;;;;;;;3.78;0.75;;;;;;;29.26;41.70;101302.25;5112913;28;20044;-47
2022/08/03 10:30:12;;;;;;;1.67;0.73;;;;;;;29.39;41.25;101300.44;5113171;28;20038;-46
2022/08/03 10:32:44;;;;;;;2.63;0.80;;;;;;;29.30;41.22;101302.22;5113390;28;20113;-45
2022/08/03 10:35:16;;;;;;;2.00;0.90;;;;;;;29.09;41.36;101296.16;5094903;28;20092;-46
2022/08/03 10:37:50;;;;;;;3.38;0.98;;;;;;;29.10;41.15;101300.56;5112972;28;20176;-49
2022/08/03 10:40:19;;;;;;;1.83;0.63;;;;;;;28.96;41.65;101297.94;5112446;28;20023;-49
2022/08/03 10:42:48;;;;;;;3.25;0.57;;;;;;;29.17;41.13;101297.00;5114411;28;20457;-47
2022/08/03 10:45:23;;;;;;;6.13;0.80;;;;;;;29.33;40.82;101291.63;5116709;28;20028;-47
2022/08/03 10:47:53;;;;;;;3.50;1.02;;;;;;;29.45;40.53;101283.69;5098523;28;20114;-46
2022/08/03 10:50:24;;;;;;;1.45;0.75;;;;;;;29.51;40.72;101288.06;5098788;28;20039;-49
2022/08/03 10:53:05;;;;;;;2.17;0.80;;;;;;;29.45;40.66;101294.28;5116686;28;20020;-56
2022/08/03 10:58:43;;;;;;;2.33;0.88;;;;;;;29.51;40.53;101288.06;5109580;28;20487;-49
2022/08/03 11:01:13;;;;;;;2.05;0.57;;;;;;;29.64;40.26;101288.84;5111009;28;20043;-48
2022/08/03 11:04:00;;;;;;;1.52;0.38;;;;;;;29.64;40.31;101281.81;5098597;28;20413;-47
2022/08/03 11:06:28;;;;;;;4.80;0.80;;;;;;;29.60;40.12;101285.38;5116561;28;20073;-50
2022/08/03 11:09:16;;;;;;;1.35;0.70;;;;;;;29.68;39.87;101272.09;5116244;28;20028;-45
2022/08/03 11:11:47;;;;;;;1.50;0.68;;;;;;;29.74;39.57;101269.44;5116507;28;20119;-47
2022/08/03 11:14:18;;;;;;;6.38;1.02;;;;;;;29.84;39.76;101268.47;5098390;28;20023;-50
2022/08/03 11:16:51;;;;;;;2.45;0.90;;;;;;;29.76;39.92;101269.41;5115912;28;20028;-48
2022/08/03 11:19:23;;;;;;;2.95;0.60;;;;;;;29.65;39.23;101273.00;5115940;28;20027;-49
2022/08/03 11:21:51;;;;;;;2.47;0.75;;;;;;;29.61;39.72;101265.97;5098241;28;20035;-49
2022/08/03 11:24:38;;;;;;;1.92;0.85;;;;;;;29.68;39.26;101272.09;5115614;28;20048;-48
2022/08/03 11:27:17;;;;;;;7.32;0.93;;;;;;;29.49;39.68;101266.06;5087770;28;20502;-54
2022/08/03 11:30:08;;;;;;;2.83;0.82;;;;;;;29.57;39.51;101264.22;5094151;28;20028;-52
2022/08/03 11:32:39;;;;;;;6.07;0.70;;;;;;;29.76;39.24;101265.00;5092792;28;20043;-47
2022/08/03 11:35:12;;;;;;;2.45;0.55;;;;;;;29.73;38.96;101256.19;5094902;28;20471;-48
2022/08/03 11:37:59;;;;;;;2.92;0.60;;;;;;;29.80;38.77;101261.44;5095473;28;20028;-49
2022/08/03 11:40:47;;;;;;;1.90;0.73;;;;;;;29.77;38.45;101255.28;5094981;28;20028;-49
2022/08/03 11:43:36;;;;;;;2.38;0.75;;;;;;;29.81;38.63;101255.25;5095160;28;20028;-49
2022/08/03 11:46:07;;;;;;;3.22;0.98;;;;;;;29.69;38.46;101250.06;5095192;28;20020;-56
2022/08/03 11:48:37;;;;;;;5.10;0.80;;;;;;;29.60;38.67;101256.28;5093648;28;20460;-47